createdAt,value
2023-03-17T00:01:06.150Z,95087.00
2023-03-17T00:05:06.101Z,95089.00
2023-03-17T00:09:06.103Z,95071.00
2023-03-17T00:13:06.068Z,95079.00
2023-03-17T00:17:06.047Z,95069.00
2023-03-17T00:21:06.050Z,95057.00
2023-03-17T00:25:06.040Z,95061.00
2023-03-17T00:29:06.074Z,95061.00
2023-03-17T00:33:06.048Z,95063.00
2023-03-17T00:37:06.079Z,95050.00
2023-03-17T00:41:06.097Z,95050.00
2023-03-17T00:45:06.031Z,95046.00
2023-03-17T00:49:06.061Z,95028.00
2023-03-17T00:53:06.030Z,95030.00
2023-03-17T00:57:06.014Z,95028.00
2023-03-17T01:01:05.977Z,95026.00
2023-03-17T01:05:06.914Z,95028.00
2023-03-17T01:09:05.981Z,95022.00
2023-03-17T01:13:05.919Z,95022.00
2023-03-17T01:17:05.896Z,95034.00
2023-03-17T01:21:05.900Z,95024.00
2023-03-17T01:25:05.933Z,95032.00
2023-03-17T01:29:05.911Z,95032.00
2023-03-17T01:33:05.889Z,95030.00
2023-03-17T01:37:05.867Z,95026.00
2023-03-17T01:41:05.866Z,95036.00
2023-03-17T01:45:06.253Z,95016.00
2023-03-17T01:49:05.893Z,95030.00
2023-03-17T01:53:05.852Z,95018.00
2023-03-17T01:57:05.851Z,95016.00
2023-03-17T02:01:05.894Z,95008.00
2023-03-17T02:05:05.796Z,95004.00
2023-03-17T02:09:05.787Z,95001.00
2023-03-17T02:13:05.870Z,94989.00
2023-03-17T02:17:05.781Z,94995.00
2023-03-17T02:21:05.788Z,94987.00
2023-03-17T02:25:05.744Z,94995.00
2023-03-17T02:29:05.763Z,94993.00
2023-03-17T02:33:05.767Z,94995.00
2023-03-17T02:37:05.795Z,94995.00
2023-03-17T02:41:05.756Z,94985.00
2023-03-17T02:45:05.774Z,94989.00
2023-03-17T02:49:05.795Z,94993.00
2023-03-17T02:53:05.786Z,94967.00
2023-03-17T02:57:05.851Z,94989.00
2023-03-17T03:01:05.878Z,94979.00
2023-03-17T03:05:05.802Z,94981.00
2023-03-17T03:09:05.750Z,94975.00
2023-03-17T03:13:05.783Z,94977.00
2023-03-17T03:17:05.797Z,94991.00
2023-03-17T03:21:05.810Z,94975.00
2023-03-17T03:25:05.850Z,94987.00
2023-03-17T03:29:05.800Z,94987.00
2023-03-17T03:33:05.810Z,94995.00
2023-03-17T03:37:05.772Z,94989.00
2023-03-17T03:41:05.843Z,94971.00
2023-03-17T03:45:05.838Z,94987.00
2023-03-17T03:49:05.821Z,95001.00
2023-03-17T03:53:05.860Z,94993.00
2023-03-17T03:57:05.859Z,94983.00
2023-03-17T04:01:05.883Z,94985.00
2023-03-17T04:05:05.960Z,94977.00
2023-03-17T04:09:05.911Z,94977.00
2023-03-17T04:13:05.963Z,94989.00
2023-03-17T04:17:05.997Z,94983.00
2023-03-17T04:21:05.992Z,94971.00
2023-03-17T04:25:06.068Z,94973.00
2023-03-17T04:29:06.075Z,94977.00
2023-03-17T04:33:06.368Z,94961.00
2023-03-17T04:37:06.125Z,94959.00
2023-03-17T04:41:06.167Z,94967.00
2023-03-17T04:45:06.198Z,94954.00
2023-03-17T04:49:06.320Z,94957.00
2023-03-17T04:53:06.294Z,94950.00
2023-03-17T04:57:06.322Z,94957.00
2023-03-17T05:01:06.400Z,94961.00
2023-03-17T05:05:06.348Z,94948.00
2023-03-17T05:09:06.387Z,94954.00
2023-03-17T05:13:06.866Z,94954.00
2023-03-17T05:17:06.437Z,94959.00
2023-03-17T05:21:06.472Z,94963.00
2023-03-17T05:25:06.500Z,94959.00
2023-03-17T05:29:06.561Z,94961.00
2023-03-17T05:33:06.658Z,94957.00
2023-03-17T05:37:06.611Z,94954.00
2023-03-17T05:41:06.690Z,94961.00
2023-03-17T05:45:06.711Z,94955.00
2023-03-17T05:49:06.741Z,94961.00
2023-03-17T05:53:06.758Z,94959.00
2023-03-17T05:57:06.838Z,94963.00
2023-03-17T06:01:06.868Z,94954.00
2023-03-17T06:05:06.909Z,94954.00
2023-03-17T06:09:07.017Z,94950.00
2023-03-17T06:13:07.016Z,94954.00
2023-03-17T06:17:07.406Z,94959.00
2023-03-17T06:21:07.115Z,94952.00
2023-03-17T06:25:07.139Z,94950.00
2023-03-17T06:29:07.174Z,94955.00
2023-03-17T06:33:07.258Z,94948.00
2023-03-17T06:37:07.249Z,94954.00
2023-03-17T06:41:07.325Z,94955.00
2023-03-17T06:45:07.345Z,94950.00
2023-03-17T06:49:07.370Z,94948.00
2023-03-17T06:53:07.387Z,94942.00
2023-03-17T06:57:07.389Z,94942.00
2023-03-17T07:01:07.396Z,94944.00
2023-03-17T07:05:07.446Z,94940.00
2023-03-17T07:09:07.472Z,94940.00
2023-03-17T07:13:07.471Z,94940.00
2023-03-17T07:17:07.522Z,94932.00
2023-03-17T07:21:07.598Z,94938.00
2023-03-17T07:25:07.563Z,94928.00
2023-03-17T07:29:07.576Z,94922.00
2023-03-17T07:33:07.683Z,94942.00
2023-03-17T07:37:07.633Z,94936.00
2023-03-17T07:41:07.772Z,94932.00
2023-03-17T07:45:07.697Z,94932.00
2023-03-17T07:49:07.708Z,94930.00
2023-03-17T07:53:07.765Z,94918.00
2023-03-17T07:57:07.783Z,94910.00
2023-03-17T08:01:07.808Z,94910.00
2023-03-17T08:05:07.777Z,94914.00
2023-03-17T08:09:07.757Z,94907.00
2023-03-17T08:13:07.815Z,94905.00
2023-03-17T08:17:07.861Z,94901.00
2023-03-17T08:21:07.800Z,94893.00
2023-03-17T08:25:07.890Z,94885.00
2023-03-17T08:29:08.120Z,94871.00
2023-03-17T08:33:08.111Z,94873.00
2023-03-17T08:37:11.185Z,94871.00
2023-03-17T08:41:07.957Z,94862.00
2023-03-17T08:45:07.993Z,94852.00
2023-03-17T08:49:07.896Z,94860.00
2023-03-17T08:53:07.866Z,94838.00
2023-03-17T08:57:07.888Z,94842.00
2023-03-17T09:01:07.830Z,94838.00
2023-03-17T09:05:07.740Z,94830.00
2023-03-17T09:09:07.801Z,94820.00
2023-03-17T09:13:07.679Z,94810.00
2023-03-17T09:17:07.655Z,94797.00
2023-03-17T09:21:07.637Z,94795.00
2023-03-17T09:25:07.614Z,94779.00
2023-03-17T09:29:07.525Z,94773.00
2023-03-17T09:33:07.545Z,94765.00
2023-03-17T09:37:07.649Z,94771.00
2023-03-17T09:41:07.413Z,94769.00
2023-03-17T09:45:07.647Z,94769.00
2023-03-17T09:49:07.846Z,94767.00
2023-03-17T09:53:07.961Z,94765.00
2023-03-17T09:57:08.093Z,94761.00
2023-03-17T10:01:08.215Z,94752.00
2023-03-17T10:05:08.350Z,94748.00
2023-03-17T10:09:08.519Z,94742.00
2023-03-17T10:13:08.549Z,94730.00
2023-03-17T10:17:08.631Z,94730.00
2023-03-17T10:21:08.762Z,94728.00
2023-03-17T10:25:08.901Z,94711.00
2023-03-17T10:29:09.043Z,94709.00
2023-03-17T10:33:09.137Z,94705.00
2023-03-17T10:37:09.184Z,94697.00
2023-03-17T10:41:09.273Z,94687.00
2023-03-17T10:45:09.351Z,94685.00
2023-03-17T10:49:09.440Z,94679.00
2023-03-17T10:53:09.535Z,94667.00
2023-03-17T10:57:09.689Z,94652.00
2023-03-17T11:01:09.742Z,94642.00
2023-03-17T11:05:09.798Z,94638.00
2023-03-17T11:09:09.933Z,94644.00
2023-03-17T11:13:09.950Z,94636.00
2023-03-17T11:17:10.024Z,94618.00
2023-03-17T11:21:10.074Z,94605.00
2023-03-17T11:25:10.478Z,94607.00
2023-03-17T11:29:10.244Z,94607.00
2023-03-17T11:33:10.452Z,94597.00
2023-03-17T11:37:10.367Z,94593.00
2023-03-17T11:41:10.451Z,94579.00
2023-03-17T11:45:10.513Z,94567.00
2023-03-17T11:49:10.613Z,94579.00
2023-03-17T11:53:10.678Z,94583.00
2023-03-17T11:57:10.770Z,94536.00
2023-03-17T12:01:10.894Z,94548.00
2023-03-17T12:05:11.062Z,94542.00
2023-03-17T12:09:11.053Z,94546.00
2023-03-17T12:13:11.178Z,94534.00
2023-03-17T12:17:11.380Z,94518.00
2023-03-17T12:21:11.382Z,94526.00
2023-03-17T12:25:11.438Z,94503.00
2023-03-17T12:29:11.541Z,94507.00
2023-03-17T12:33:11.663Z,94512.00
2023-03-17T12:37:11.712Z,94505.00
2023-03-17T12:41:11.783Z,94497.00
2023-03-17T12:45:11.885Z,94489.00
2023-03-17T12:49:11.989Z,94489.00
2023-03-17T12:53:12.097Z,94471.00
2023-03-17T12:57:12.240Z,94475.00
2023-03-17T13:01:12.426Z,94477.00
2023-03-17T13:05:12.477Z,94460.00
2023-03-17T13:09:12.631Z,94448.00
2023-03-17T13:13:12.791Z,94450.00
2023-03-17T13:17:12.938Z,94442.00
2023-03-17T13:21:13.122Z,94444.00
2023-03-17T13:25:13.297Z,94442.00
2023-03-17T13:29:13.472Z,94422.00
2023-03-17T13:33:16.325Z,94432.00
2023-03-17T13:37:13.607Z,94418.00
2023-03-17T13:41:14.062Z,94422.00
2023-03-17T13:45:13.549Z,94430.00
2023-03-17T13:49:13.501Z,94411.00
2023-03-17T13:53:13.438Z,94413.00
2023-03-17T13:57:13.487Z,94399.00
2023-03-17T14:01:20.524Z,94393.00
2023-03-17T14:05:13.388Z,94393.00
2023-03-17T14:09:13.429Z,94393.00
2023-03-17T14:13:13.357Z,94397.00
2023-03-17T14:17:13.258Z,94393.00
2023-03-17T14:21:13.314Z,94379.00
2023-03-17T14:25:13.235Z,94366.00
2023-03-17T14:29:13.202Z,94372.00
2023-03-17T14:33:13.159Z,94387.00
2023-03-17T14:37:13.117Z,94370.00
2023-03-17T14:41:13.081Z,94370.00
2023-03-17T14:45:13.117Z,94360.00
2023-03-17T14:49:13.030Z,94362.00
2023-03-17T14:53:13.007Z,94364.00
2023-03-17T14:57:12.995Z,94352.00
2023-03-17T15:01:12.928Z,94356.00
2023-03-17T15:05:12.952Z,94356.00
2023-03-17T15:09:12.970Z,94350.00
2023-03-17T15:13:13.098Z,94350.00
2023-03-17T15:17:13.197Z,94356.00
2023-03-17T15:21:13.369Z,94346.00
2023-03-17T15:25:13.543Z,94346.00
2023-03-17T15:29:13.582Z,94342.00
2023-03-17T15:33:13.726Z,94340.00
2023-03-17T15:37:13.713Z,94344.00
2023-03-17T15:41:13.807Z,94346.00
2023-03-17T15:45:13.820Z,94338.00
2023-03-17T15:49:13.799Z,94348.00
2023-03-17T15:53:13.854Z,94338.00
2023-03-17T15:57:13.798Z,94340.00
2023-03-17T16:01:13.867Z,94338.00
2023-03-17T16:05:13.774Z,94354.00
2023-03-17T16:09:13.740Z,94348.00
2023-03-17T16:13:13.713Z,94340.00
2023-03-17T16:17:13.704Z,94346.00
2023-03-17T16:21:13.668Z,94342.00
2023-03-17T16:25:13.687Z,94344.00
2023-03-17T16:29:13.631Z,94346.00
2023-03-17T16:33:13.647Z,94352.00
2023-03-17T16:37:13.634Z,94358.00
2023-03-17T16:41:13.578Z,94372.00
2023-03-17T16:45:13.632Z,94381.00
2023-03-17T16:49:13.585Z,94381.00
2023-03-17T16:53:13.636Z,94391.00
2023-03-17T16:57:13.613Z,94399.00
2023-03-17T17:01:13.648Z,94403.00
2023-03-17T17:05:13.628Z,94417.00
2023-03-17T17:09:13.620Z,94417.00
2023-03-17T17:13:13.631Z,94418.00
2023-03-17T17:17:13.636Z,94420.00
2023-03-17T17:21:13.679Z,94413.00
2023-03-17T17:25:13.664Z,94418.00
2023-03-17T17:29:13.696Z,94418.00
2023-03-17T17:33:13.721Z,94432.00
2023-03-17T17:37:13.671Z,94418.00
2023-03-17T17:41:13.701Z,94415.00
2023-03-17T17:45:13.739Z,94415.00
2023-03-17T17:49:13.734Z,94430.00
2023-03-17T17:53:13.803Z,94434.00
2023-03-17T17:57:13.781Z,94418.00
2023-03-17T18:01:13.877Z,94428.00
2023-03-17T18:05:13.915Z,94426.00
2023-03-17T18:09:13.971Z,94428.00
2023-03-17T18:13:14.036Z,94430.00
2023-03-17T18:17:14.081Z,94440.00
2023-03-17T18:21:14.152Z,94422.00
2023-03-17T18:25:14.216Z,94422.00
2023-03-17T18:29:14.233Z,94432.00
2023-03-17T18:33:14.290Z,94444.00
2023-03-17T18:37:14.323Z,94464.00
2023-03-17T18:41:14.388Z,94471.00
2023-03-17T18:45:14.423Z,94475.00
2023-03-17T18:49:14.442Z,94469.00
2023-03-17T18:53:14.503Z,94467.00
2023-03-17T18:57:14.530Z,94448.00
2023-03-17T19:01:14.726Z,94473.00
2023-03-17T19:05:14.668Z,94471.00
2023-03-17T19:09:14.670Z,94456.00
2023-03-17T19:13:14.715Z,94469.00
2023-03-17T19:17:14.776Z,94475.00
2023-03-17T19:21:14.797Z,94477.00
2023-03-17T19:25:14.829Z,94483.00
2023-03-17T19:29:14.863Z,94483.00
2023-03-17T19:33:14.910Z,94477.00
2023-03-17T19:37:15.002Z,94475.00
2023-03-17T19:41:15.052Z,94487.00
2023-03-17T19:45:15.048Z,94469.00
2023-03-17T19:49:15.127Z,94479.00
2023-03-17T19:53:15.229Z,94483.00
2023-03-17T19:57:15.263Z,94503.00
2023-03-17T20:01:15.305Z,94497.00
2023-03-17T20:05:15.320Z,94479.00
2023-03-17T20:09:15.401Z,94493.00
2023-03-17T20:13:15.471Z,94491.00
2023-03-17T20:17:15.503Z,94501.00
2023-03-17T20:21:15.572Z,94491.00
2023-03-17T20:25:15.659Z,94481.00
2023-03-17T20:29:15.684Z,94503.00
2023-03-17T20:33:15.755Z,94507.00
2023-03-17T20:37:15.843Z,94507.00
2023-03-17T20:41:15.902Z,94497.00
2023-03-17T20:45:16.003Z,94503.00
2023-03-17T20:49:16.023Z,94505.00
2023-03-17T20:53:16.090Z,94509.00
2023-03-17T20:57:16.204Z,94501.00
2023-03-17T21:01:16.303Z,94505.00
2023-03-17T21:05:16.354Z,94503.00
2023-03-17T21:09:16.384Z,94507.00
2023-03-17T21:13:16.514Z,94514.00
2023-03-17T21:17:16.556Z,94528.00
2023-03-17T21:21:16.739Z,94522.00
2023-03-17T21:25:16.709Z,94516.00
2023-03-17T21:29:16.815Z,94526.00
2023-03-17T21:33:16.856Z,94526.00
2023-03-17T21:37:17.281Z,94548.00
2023-03-17T21:41:16.994Z,94544.00
2023-03-17T21:45:17.061Z,94550.00
2023-03-17T21:49:17.176Z,94552.00
2023-03-17T21:53:17.199Z,94550.00
2023-03-17T21:57:17.304Z,94554.00
2023-03-17T22:01:17.467Z,94567.00
2023-03-17T22:05:17.494Z,94569.00
2023-03-17T22:09:19.128Z,94569.00
2023-03-17T22:13:17.683Z,94579.00
2023-03-17T22:17:17.761Z,94587.00
2023-03-17T22:21:17.900Z,94587.00
2023-03-17T22:25:17.886Z,94587.00
2023-03-17T22:29:17.946Z,94589.00
2023-03-17T22:33:18.044Z,94589.00
2023-03-17T22:37:18.134Z,94593.00
2023-03-17T22:41:18.258Z,94593.00
2023-03-17T22:45:18.338Z,94587.00
2023-03-17T22:49:18.451Z,94591.00
2023-03-17T22:53:18.488Z,94595.00
2023-03-17T22:57:18.590Z,94595.00
2023-03-17T23:01:18.761Z,94601.00
2023-03-17T23:05:18.762Z,94613.00
2023-03-17T23:09:18.843Z,94613.00
2023-03-17T23:13:18.917Z,94620.00
2023-03-17T23:17:18.993Z,94622.00
2023-03-17T23:21:19.070Z,94618.00
2023-03-17T23:25:19.170Z,94624.00
2023-03-17T23:29:19.210Z,94636.00
2023-03-17T23:33:19.284Z,94642.00
2023-03-17T23:37:19.416Z,94650.00
2023-03-17T23:41:19.430Z,94646.00
2023-03-17T23:45:19.508Z,94642.00
2023-03-17T23:49:19.597Z,94650.00
2023-03-17T23:53:19.693Z,94652.00
2023-03-17T23:57:19.777Z,94658.00
